createdAt,value
2023-11-07T00:00:16.010Z,100680.34
2023-11-07T00:02:43.922Z,100675.13
2023-11-07T00:05:12.278Z,100688.34
2023-11-07T00:07:39.876Z,100673.47
2023-11-07T00:10:08.081Z,100695.06
2023-11-07T00:12:35.590Z,100690.22
2023-11-07T00:15:04.278Z,100678.66
2023-11-07T00:17:32.036Z,100675.81
2023-11-07T00:19:59.326Z,100689.47
2023-11-07T00:22:27.451Z,100696.81
2023-11-07T00:24:54.638Z,100691.81
2023-11-07T00:27:22.031Z,100689.69
2023-11-07T00:29:49.462Z,100696.69
2023-11-07T00:32:16.946Z,100695.66
2023-11-07T00:34:44.116Z,100703.84
2023-11-07T00:37:11.423Z,100706.66
2023-11-07T00:39:38.817Z,100704.69
2023-11-07T00:42:06.272Z,100692.94
2023-11-07T00:44:33.634Z,100697.78
2023-11-07T00:47:01.477Z,100712.06
2023-11-07T00:49:29.228Z,100698.03
2023-11-07T00:51:56.608Z,100697.31
2023-11-07T00:54:38.677Z,100693.69
2023-11-07T00:57:05.848Z,100699.44
2023-11-07T00:59:36.697Z,100704.91
2023-11-07T01:02:04.476Z,100703.41
2023-11-07T01:04:37.198Z,100707.00
2023-11-07T01:07:05.343Z,100699.69
2023-11-07T01:09:32.457Z,100698.25
2023-11-07T01:11:59.727Z,100709.06
2023-11-07T01:14:26.890Z,100713.50
2023-11-07T01:16:54.141Z,100705.16
2023-11-07T01:19:22.243Z,100713.28
2023-11-07T01:21:54.729Z,100716.41
2023-11-07T01:24:21.977Z,100703.59
2023-11-07T01:26:56.493Z,100712.06
2023-11-07T01:29:23.885Z,100702.41
2023-11-07T01:31:51.049Z,100702.63
2023-11-07T01:34:18.693Z,100697.09
2023-11-07T01:36:45.938Z,100697.09
2023-11-07T01:39:14.852Z,100696.00
2023-11-07T01:41:43.275Z,100696.28
2023-11-07T01:44:35.743Z,100689.72
2023-11-07T01:47:03.960Z,100689.16
2023-11-07T01:49:31.223Z,100689.13
2023-11-07T01:52:01.445Z,100683.56
2023-11-07T01:54:28.739Z,100685.00
2023-11-07T01:56:55.975Z,100677.75
2023-11-07T01:59:23.843Z,100685.13
2023-11-07T02:01:51.892Z,100677.03
2023-11-07T02:04:19.275Z,100687.31
2023-11-07T02:06:46.888Z,100678.34
2023-11-07T02:09:14.058Z,100669.53
2023-11-07T02:11:41.350Z,100677.53
2023-11-07T02:14:10.362Z,100660.97
2023-11-07T02:16:37.675Z,100671.59
2023-11-07T02:19:05.055Z,100672.94
2023-11-07T02:21:32.713Z,100664.59
2023-11-07T02:23:59.977Z,100657.72
2023-11-07T02:26:27.582Z,100666.50
2023-11-07T02:28:54.868Z,100671.72
2023-11-07T02:31:22.057Z,100662.50
2023-11-07T02:33:49.427Z,100672.06
2023-11-07T02:36:16.859Z,100663.72
2023-11-07T02:38:44.455Z,100675.28
2023-11-07T02:41:11.986Z,100670.22
2023-11-07T02:43:39.251Z,100667.88
2023-11-07T02:46:06.583Z,100673.66
2023-11-07T02:48:34.374Z,100670.66
2023-11-07T02:51:01.670Z,100666.69
2023-11-07T02:53:28.896Z,100668.00
2023-11-07T02:55:56.153Z,100664.81
2023-11-07T02:58:25.124Z,100662.50
2023-11-07T03:00:52.355Z,100662.91
2023-11-07T03:03:20.023Z,100666.72
2023-11-07T03:05:47.505Z,100669.19
2023-11-07T03:08:14.732Z,100672.56
2023-11-07T03:10:42.050Z,100664.84
2023-11-07T03:13:09.752Z,100662.31
2023-11-07T03:15:36.964Z,100669.56
2023-11-07T03:18:04.319Z,100662.91
2023-11-07T03:20:38.268Z,100665.00
2023-11-07T03:23:08.216Z,100663.13
2023-11-07T03:25:35.466Z,100672.66
2023-11-07T03:28:03.483Z,100662.00
2023-11-07T03:30:30.720Z,100656.81
2023-11-07T03:32:58.195Z,100665.47
2023-11-07T03:35:28.178Z,100666.66
2023-11-07T03:37:57.769Z,100666.94
2023-11-07T03:40:25.020Z,100664.69
2023-11-07T03:42:52.260Z,100670.75
2023-11-07T03:45:19.453Z,100672.91
2023-11-07T03:47:46.788Z,100673.28
2023-11-07T03:50:14.154Z,100661.19
2023-11-07T03:52:41.992Z,100667.22
2023-11-07T03:55:09.208Z,100664.69
2023-11-07T03:57:36.399Z,100672.94
2023-11-07T04:00:05.682Z,100677.22
2023-11-07T04:02:33.973Z,100668.66
2023-11-07T04:05:01.121Z,100674.88
2023-11-07T04:07:28.477Z,100679.81
2023-11-07T04:09:56.135Z,100681.97
2023-11-07T04:12:23.556Z,100682.47
2023-11-07T04:15:06.332Z,100685.91
2023-11-07T04:17:35.023Z,100680.03
2023-11-07T04:20:03.995Z,100673.28
2023-11-07T04:22:31.231Z,100688.66
2023-11-07T04:24:58.747Z,100683.81
2023-11-07T04:27:26.054Z,100680.78
2023-11-07T04:29:53.455Z,100685.09
2023-11-07T04:32:20.640Z,100682.75
2023-11-07T04:34:50.588Z,100683.88
2023-11-07T04:37:17.754Z,100688.81
2023-11-07T04:39:49.912Z,100695.47
2023-11-07T04:42:18.798Z,100693.34
2023-11-07T04:44:46.484Z,100694.25
2023-11-07T04:47:17.288Z,100701.25
2023-11-07T04:49:44.819Z,100697.13
2023-11-07T04:52:12.273Z,100697.72
2023-11-07T04:54:40.027Z,100699.13
2023-11-07T04:57:10.255Z,100697.97
2023-11-07T04:59:38.152Z,100701.84
2023-11-07T05:02:07.478Z,100706.94
2023-11-07T05:04:38.227Z,100706.78
2023-11-07T05:07:05.804Z,100692.22
2023-11-07T05:09:33.240Z,100696.97
2023-11-07T05:12:00.987Z,100701.13
2023-11-07T05:14:30.695Z,100702.59
2023-11-07T05:16:58.384Z,100709.28
2023-11-07T05:19:26.479Z,100700.59
2023-11-07T05:21:53.960Z,100705.56
2023-11-07T05:24:21.340Z,100689.06
2023-11-07T05:26:52.188Z,100704.41
2023-11-07T05:29:19.636Z,100713.41
2023-11-07T05:31:48.050Z,100706.50
2023-11-07T05:34:16.057Z,100707.00
2023-11-07T05:36:43.516Z,100699.13
2023-11-07T05:39:11.021Z,100699.66
2023-11-07T05:41:43.713Z,100693.59
2023-11-07T05:44:11.200Z,100708.47
2023-11-07T05:46:38.592Z,100701.50
2023-11-07T05:49:10.318Z,100706.13
2023-11-07T05:51:39.317Z,100699.66
2023-11-07T05:54:08.700Z,100711.66
2023-11-07T05:56:38.772Z,100714.03
2023-11-07T05:59:08.488Z,100704.06
2023-11-07T06:01:36.182Z,100710.28
2023-11-07T06:04:05.319Z,100720.03
2023-11-07T06:06:32.954Z,100715.41
2023-11-07T06:09:00.399Z,100721.91
2023-11-07T06:11:28.069Z,100719.31
2023-11-07T06:13:56.010Z,100728.75
2023-11-07T06:16:23.775Z,100727.13
2023-11-07T06:18:51.305Z,100733.56
2023-11-07T06:21:19.380Z,100725.72
2023-11-07T06:23:50.312Z,100727.06
2023-11-07T06:26:17.780Z,100728.25
2023-11-07T06:28:45.282Z,100737.38
2023-11-07T06:31:12.628Z,100740.81
2023-11-07T06:33:40.339Z,100760.28
2023-11-07T06:36:08.326Z,100758.59
2023-11-07T06:38:43.111Z,100748.78
2023-11-07T06:41:10.883Z,100755.56
2023-11-07T06:43:39.656Z,100762.59
2023-11-07T06:46:07.892Z,100762.66
2023-11-07T06:48:35.841Z,100765.91
2023-11-07T06:51:03.841Z,100782.41
2023-11-07T06:53:31.382Z,100775.59
2023-11-07T06:56:02.244Z,100779.16
2023-11-07T06:58:32.773Z,100773.00
2023-11-07T07:01:04.048Z,100789.19
2023-11-07T07:03:53.237Z,100780.25
2023-11-07T07:06:27.821Z,100787.44
2023-11-07T07:09:05.040Z,100774.38
2023-11-07T07:11:35.656Z,100784.34
2023-11-07T07:14:13.218Z,100778.50
2023-11-07T07:16:56.294Z,100778.91
2023-11-07T07:19:33.708Z,100779.53
2023-11-07T07:35:22.298Z,100796.91
2023-11-07T07:37:54.792Z,100788.06
2023-11-07T07:40:30.765Z,100797.00
2023-11-07T07:43:00.610Z,100794.03
2023-11-07T07:45:32.933Z,100784.28
2023-11-07T08:23:06.506Z,100796.16
2023-11-07T08:28:37.421Z,100802.88
2023-11-07T08:31:04.880Z,100800.69
2023-11-07T08:33:32.994Z,100797.47
2023-11-07T08:36:04.464Z,100802.59
2023-11-07T08:38:36.519Z,100790.59
2023-11-07T08:41:05.050Z,100793.28
2023-11-07T08:49:23.224Z,100812.06
2023-11-07T08:51:54.087Z,100798.72
2023-11-07T08:57:07.534Z,100820.63
2023-11-07T08:59:39.109Z,100811.72
2023-11-07T09:04:49.992Z,100826.97
2023-11-07T09:07:20.361Z,100820.94
2023-11-07T09:10:14.604Z,100810.94
2023-11-07T09:12:51.774Z,100815.13
2023-11-07T09:15:21.781Z,100813.00
2023-11-07T09:17:54.426Z,100817.72
2023-11-07T09:23:33.540Z,100816.06
2023-11-07T09:26:01.117Z,100814.66
2023-11-07T09:28:28.934Z,100816.16
2023-11-07T09:30:58.471Z,100817.41
2023-11-07T09:33:26.016Z,100814.72
2023-11-07T09:35:53.708Z,100815.75
2023-11-07T09:38:21.155Z,100811.66
2023-11-07T09:40:49.009Z,100800.72
2023-11-07T09:43:17.939Z,100797.00
2023-11-07T09:45:47.708Z,100806.22
2023-11-07T09:48:15.406Z,100805.88
2023-11-07T09:50:44.856Z,100806.53
2023-11-07T09:53:14.780Z,100810.06
2023-11-07T09:55:42.610Z,100811.13
2023-11-07T09:58:18.435Z,100798.31
2023-11-07T10:00:46.607Z,100798.91
2023-11-07T10:03:16.172Z,100796.50
2023-11-07T10:08:56.626Z,100777.22
2023-11-07T10:11:24.348Z,100788.13
2023-11-07T10:20:48.951Z,100785.03
2023-11-07T10:32:57.300Z,100768.34
2023-11-07T10:35:26.077Z,100777.97
2023-11-07T10:38:19.755Z,100761.84
2023-11-07T10:40:51.410Z,100755.31
2023-11-07T10:43:38.809Z,100759.97
2023-11-07T10:46:11.087Z,100756.00
2023-11-07T10:51:44.516Z,100746.59
2023-11-07T10:54:16.463Z,100753.44
2023-11-07T10:56:46.604Z,100751.75
2023-11-07T10:59:24.393Z,100755.22
2023-11-07T11:08:05.714Z,100741.75
2023-11-07T11:26:15.036Z,100722.84
2023-11-07T11:28:44.758Z,100717.41
2023-11-07T11:31:19.578Z,100710.25
2023-11-07T11:33:53.067Z,100707.72
2023-11-07T11:36:41.140Z,100709.09
2023-11-07T11:39:27.585Z,100710.03
2023-11-07T11:41:59.278Z,100703.75
2023-11-07T11:44:27.148Z,100700.06
2023-11-07T11:46:57.917Z,100697.00
2023-11-07T11:49:25.718Z,100688.19
2023-11-07T11:51:54.614Z,100679.38
2023-11-07T11:57:26.363Z,100671.38
2023-11-07T12:03:06.425Z,100674.75
2023-11-07T12:05:38.683Z,100659.41
2023-11-07T12:08:36.270Z,100661.88
2023-11-07T12:11:45.846Z,100657.00
2023-11-07T12:18:09.740Z,100647.22
2023-11-07T12:21:51.653Z,100649.31
2023-11-07T12:24:21.255Z,100646.75
2023-11-07T12:26:49.130Z,100645.72
2023-11-07T12:29:36.035Z,100646.75
2023-11-07T12:32:07.591Z,100641.09
2023-11-07T12:34:37.190Z,100637.94
2023-11-07T12:37:17.347Z,100633.69
2023-11-07T12:39:47.202Z,100627.72
2023-11-07T12:42:14.724Z,100631.44
2023-11-07T12:44:43.328Z,100629.56
2023-11-07T12:47:10.825Z,100626.94
2023-11-07T12:49:39.805Z,100632.47
2023-11-07T12:52:13.523Z,100628.44
2023-11-07T12:54:41.465Z,100621.16
2023-11-07T12:57:08.796Z,100616.72
2023-11-07T12:59:36.441Z,100621.78
2023-11-07T13:02:04.747Z,100619.41
2023-11-07T13:04:32.344Z,100611.22
2023-11-07T13:07:01.421Z,100614.34
2023-11-07T13:09:32.555Z,100608.16
2023-11-07T13:12:12.156Z,100608.53
2023-11-07T13:14:40.158Z,100601.81
2023-11-07T13:17:08.826Z,100596.97
2023-11-07T13:19:37.191Z,100600.75
2023-11-07T13:22:05.104Z,100601.81
2023-11-07T13:24:32.738Z,100587.63
2023-11-07T13:27:00.377Z,100587.84
2023-11-07T13:32:12.981Z,100577.97
2023-11-07T13:34:42.590Z,100576.13
2023-11-07T13:37:11.003Z,100561.25
2023-11-07T13:39:42.492Z,100567.06
2023-11-07T13:42:09.878Z,100563.59
2023-11-07T13:44:38.164Z,100581.63
2023-11-07T13:47:08.065Z,100573.78
2023-11-07T13:49:38.095Z,100575.75
2023-11-07T13:52:07.324Z,100581.00
2023-11-07T13:54:35.003Z,100580.50
2023-11-07T13:57:03.170Z,100571.44
2023-11-07T13:59:30.648Z,100574.59
2023-11-07T14:01:58.005Z,100570.06
2023-11-07T14:04:25.594Z,100575.25
2023-11-07T14:06:53.259Z,100582.69
2023-11-07T14:09:21.158Z,100580.44
2023-11-07T14:11:48.660Z,100574.50
2023-11-07T14:14:18.436Z,100586.91
2023-11-07T14:16:48.003Z,100590.50
2023-11-07T14:19:16.964Z,100588.63
2023-11-07T14:21:48.498Z,100578.09
2023-11-07T14:24:16.171Z,100586.63
2023-11-07T14:26:43.639Z,100594.28
2023-11-07T14:29:26.943Z,100586.72
2023-11-07T14:31:58.669Z,100578.97
2023-11-07T14:34:35.157Z,100586.28
2023-11-07T14:37:02.406Z,100586.00
2023-11-07T14:39:40.918Z,100579.41
2023-11-07T14:42:08.509Z,100588.19
2023-11-07T14:44:37.845Z,100587.22
2023-11-07T14:47:08.257Z,100581.06
2023-11-07T14:49:35.593Z,100587.78
2023-11-07T14:52:05.868Z,100587.88
2023-11-07T14:54:33.178Z,100584.00
2023-11-07T14:57:05.940Z,100577.69
2023-11-07T14:59:33.964Z,100578.97
2023-11-07T15:02:01.430Z,100583.69
2023-11-07T15:04:31.264Z,100592.38
2023-11-07T15:06:59.991Z,100583.97
2023-11-07T15:09:27.686Z,100583.84
2023-11-07T15:11:55.329Z,100582.03
2023-11-07T15:14:25.844Z,100579.34
2023-11-07T15:16:55.217Z,100569.88
2023-11-07T15:19:22.701Z,100586.94
2023-11-07T15:21:50.176Z,100585.84
2023-11-07T15:24:18.906Z,100590.56
2023-11-07T15:26:46.948Z,100585.69
2023-11-07T15:29:14.218Z,100586.03
2023-11-07T15:31:41.557Z,100585.78
2023-11-07T15:34:21.949Z,100589.13
2023-11-07T15:36:50.086Z,100591.41
2023-11-07T15:39:22.642Z,100595.34
2023-11-07T15:41:50.924Z,100609.69
2023-11-07T15:44:18.213Z,100602.50
2023-11-07T15:46:45.593Z,100608.09
2023-11-07T15:49:13.193Z,100589.75
2023-11-07T15:51:40.747Z,100602.66
2023-11-07T15:54:08.187Z,100608.38
2023-11-07T15:56:35.600Z,100618.72
2023-11-07T15:59:05.444Z,100615.56
2023-11-07T16:01:34.589Z,100611.91
2023-11-07T16:04:01.940Z,100622.41
2023-11-07T16:06:29.051Z,100624.72
2023-11-07T16:08:56.395Z,100621.63
2023-11-07T16:11:27.173Z,100622.19
2023-11-07T16:13:54.764Z,100632.19
2023-11-07T16:16:23.142Z,100634.81
2023-11-07T16:18:57.401Z,100626.13
2023-11-07T16:21:25.583Z,100635.06
2023-11-07T16:23:52.951Z,100642.41
2023-11-07T16:26:22.299Z,100654.31
2023-11-07T16:28:49.797Z,100652.81
2023-11-07T16:31:17.179Z,100645.69
2023-11-07T16:33:45.300Z,100636.53
2023-11-07T16:36:12.797Z,100650.63
2023-11-07T16:38:40.073Z,100658.91
2023-11-07T16:41:07.240Z,100656.66
2023-11-07T16:43:34.794Z,100654.00
2023-11-07T16:46:02.382Z,100658.09
2023-11-07T16:48:29.735Z,100658.09
2023-11-07T16:50:59.524Z,100666.22
2023-11-07T16:53:26.975Z,100661.34
2023-11-07T16:55:57.952Z,100670.47
2023-11-07T16:58:25.139Z,100667.78
2023-11-07T17:00:52.420Z,100664.56
2023-11-07T17:03:19.938Z,100668.44
2023-11-07T17:05:47.490Z,100672.31
2023-11-07T17:08:14.872Z,100676.53
2023-11-07T17:10:42.253Z,100674.00
2023-11-07T17:13:09.652Z,100672.50
2023-11-07T17:15:37.897Z,100684.78
2023-11-07T17:18:05.494Z,100681.94
2023-11-07T17:20:32.928Z,100666.56
2023-11-07T17:23:00.958Z,100678.53
2023-11-07T17:25:28.283Z,100682.41
2023-11-07T17:27:55.673Z,100679.22
2023-11-07T17:30:23.418Z,100690.50
2023-11-07T17:32:51.026Z,100692.06
2023-11-07T17:35:18.484Z,100688.72
2023-11-07T17:37:47.469Z,100705.94
2023-11-07T17:40:16.517Z,100710.47
2023-11-07T17:42:45.389Z,100710.00
2023-11-07T17:45:14.355Z,100711.81
2023-11-07T17:47:42.703Z,100716.50
2023-11-07T17:50:10.094Z,100715.09
2023-11-07T17:52:37.202Z,100709.69
2023-11-07T17:55:04.650Z,100714.69
2023-11-07T17:57:31.860Z,100715.06
2023-11-07T17:59:59.451Z,100725.13
2023-11-07T18:02:27.383Z,100723.06
2023-11-07T18:04:55.305Z,100716.16
2023-11-07T18:07:22.798Z,100730.75
2023-11-07T18:09:50.425Z,100730.88
2023-11-07T18:12:18.936Z,100726.00
2023-11-07T18:14:46.058Z,100739.44
2023-11-07T18:17:13.439Z,100731.22
2023-11-07T18:19:40.881Z,100731.69
2023-11-07T18:22:08.232Z,100737.03
2023-11-07T18:24:35.407Z,100738.56
2023-11-07T18:27:02.552Z,100730.28
2023-11-07T18:29:32.126Z,100730.00
2023-11-07T18:32:01.316Z,100732.88
2023-11-07T18:34:28.665Z,100737.97
2023-11-07T18:37:03.474Z,100736.38
2023-11-07T18:39:32.043Z,100742.88
2023-11-07T18:42:00.173Z,100746.81
2023-11-07T18:44:36.886Z,100735.31
2023-11-07T18:47:04.467Z,100748.16
2023-11-07T18:49:34.844Z,100743.63
2023-11-07T18:52:02.164Z,100741.34
2023-11-07T18:54:29.477Z,100739.13
2023-11-07T18:56:59.861Z,100733.19
2023-11-07T18:59:34.648Z,100742.38
2023-11-07T19:02:08.277Z,100742.53
2023-11-07T19:04:37.432Z,100747.59
2023-11-07T19:07:06.020Z,100740.84
2023-11-07T19:09:33.202Z,100739.69
2023-11-07T19:12:03.572Z,100747.88
2023-11-07T19:14:31.126Z,100752.97
2023-11-07T19:16:58.462Z,100744.03
2023-11-07T19:19:25.879Z,100756.09
2023-11-07T19:21:53.033Z,100751.63
2023-11-07T19:24:22.016Z,100750.69
2023-11-07T19:26:50.179Z,100749.63
2023-11-07T19:29:17.943Z,100751.63
2023-11-07T19:31:50.370Z,100758.09
2023-11-07T19:34:20.560Z,100756.69
2023-11-07T19:36:51.537Z,100756.41
2023-11-07T19:39:21.596Z,100759.34
2023-11-07T19:41:49.307Z,100754.31
2023-11-07T19:44:16.991Z,100757.00
2023-11-07T19:46:44.655Z,100761.81
2023-11-07T19:49:12.097Z,100759.34
2023-11-07T19:51:41.684Z,100762.41
2023-11-07T19:54:10.297Z,100756.09
2023-11-07T19:56:38.431Z,100760.72
2023-11-07T19:59:08.905Z,100766.56
2023-11-07T20:01:36.994Z,100765.81
2023-11-07T20:04:04.630Z,100763.06
2023-11-07T20:06:32.572Z,100760.19
2023-11-07T20:09:00.189Z,100755.97
2023-11-07T20:11:27.630Z,100761.09
2023-11-07T20:13:54.934Z,100768.91
2023-11-07T20:16:22.489Z,100769.97
2023-11-07T20:18:50.043Z,100773.47
2023-11-07T20:21:17.588Z,100775.69
2023-11-07T20:23:44.890Z,100784.38
2023-11-07T20:26:12.785Z,100765.28
2023-11-07T20:28:40.032Z,100773.75
2023-11-07T20:31:08.629Z,100769.84
2023-11-07T20:33:44.492Z,100772.81
2023-11-07T20:36:20.153Z,100780.56
2023-11-07T20:38:48.836Z,100786.72
2023-11-07T20:41:21.706Z,100779.44
2023-11-07T20:43:51.161Z,100789.31
2023-11-07T20:46:32.876Z,100790.88
2023-11-07T20:49:04.638Z,100791.00
2023-11-07T20:51:33.198Z,100790.88
2023-11-07T20:54:03.299Z,100801.88
2023-11-07T20:56:30.874Z,100806.06
2023-11-07T20:59:01.240Z,100808.88
2023-11-07T21:01:28.977Z,100807.22
2023-11-07T21:03:56.970Z,100810.09
2023-11-07T21:06:25.400Z,100804.53
2023-11-07T21:08:53.835Z,100808.44
2023-11-07T21:11:24.115Z,100808.63
2023-11-07T21:13:52.538Z,100811.53
2023-11-07T21:16:20.142Z,100807.94
2023-11-07T21:18:48.846Z,100806.69
2023-11-07T21:21:17.482Z,100815.50
2023-11-07T21:23:44.967Z,100813.19
2023-11-07T21:26:13.517Z,100810.09
2023-11-07T21:28:41.490Z,100817.31
2023-11-07T21:31:08.823Z,100818.66
2023-11-07T21:33:36.358Z,100824.84
2023-11-07T21:36:04.241Z,100818.81
2023-11-07T21:38:31.722Z,100818.53
2023-11-07T21:40:59.123Z,100817.16
2023-11-07T21:43:26.567Z,100821.69
2023-11-07T21:45:53.926Z,100824.34
2023-11-07T21:48:25.644Z,100819.00
2023-11-07T21:50:53.420Z,100816.25
2023-11-07T21:53:22.509Z,100817.88
2023-11-07T21:55:58.648Z,100820.38
2023-11-07T21:58:26.134Z,100817.31
2023-11-07T22:00:53.821Z,100811.00
2023-11-07T22:03:21.238Z,100810.41
2023-11-07T22:05:48.687Z,100803.44
2023-11-07T22:08:15.961Z,100804.97
2023-11-07T22:10:43.316Z,100813.00
2023-11-07T22:13:10.588Z,100806.34
2023-11-07T22:15:38.101Z,100812.69
2023-11-07T22:18:05.966Z,100812.94
2023-11-07T22:20:33.682Z,100812.13
2023-11-07T22:23:02.310Z,100809.97
2023-11-07T22:25:30.003Z,100811.91
2023-11-07T22:27:57.260Z,100818.03
2023-11-07T22:30:24.626Z,100819.22
2023-11-07T22:32:52.341Z,100828.28
2023-11-07T22:35:20.004Z,100822.72
2023-11-07T22:37:47.444Z,100825.19
2023-11-07T22:40:14.948Z,100826.00
2023-11-07T22:42:42.465Z,100830.69
2023-11-07T22:45:11.378Z,100827.22
2023-11-07T22:47:38.972Z,100822.41
2023-11-07T22:50:07.267Z,100829.91
2023-11-07T22:52:34.689Z,100836.56
2023-11-07T22:55:02.529Z,100839.09
2023-11-07T22:57:34.920Z,100842.06
2023-11-07T23:00:03.360Z,100845.91
2023-11-07T23:02:32.039Z,100848.88
2023-11-07T23:04:59.519Z,100843.09
2023-11-07T23:07:26.785Z,100844.84
2023-11-07T23:09:54.752Z,100840.97
2023-11-07T23:12:22.075Z,100846.84
2023-11-07T23:14:49.847Z,100846.56
2023-11-07T23:17:17.861Z,100849.13
2023-11-07T23:19:45.872Z,100840.13
2023-11-07T23:22:13.493Z,100845.25
2023-11-07T23:24:44.540Z,100854.69
2023-11-07T23:27:15.271Z,100844.63
2023-11-07T23:29:45.391Z,100854.63
2023-11-07T23:32:13.040Z,100857.00
2023-11-07T23:34:41.666Z,100855.22
2023-11-07T23:37:09.547Z,100861.25
2023-11-07T23:39:36.958Z,100865.16
2023-11-07T23:42:04.649Z,100865.25
2023-11-07T23:44:32.712Z,100866.31
2023-11-07T23:47:00.075Z,100875.44
2023-11-07T23:49:27.382Z,100864.00
2023-11-07T23:51:54.689Z,100864.44
2023-11-07T23:54:23.998Z,100861.03
2023-11-07T23:56:51.936Z,100856.75
2023-11-07T23:59:19.234Z,100844.66
